sensor_id;sensor_type;location;lat;lon;timestamp;P1;durP1;ratioP1;P2;durP2;ratioP2
20627;SDS011;10473;42.734;24.258;2024-03-25T00:01:59;18.52;;;9.32;;
20627;SDS011;10473;42.734;24.258;2024-03-25T00:04:25;17.00;;;8.25;;
20627;SDS011;10473;42.734;24.258;2024-03-25T00:06:51;19.13;;;8.02;;
20627;SDS011;10473;42.734;24.258;2024-03-25T00:09:18;11.55;;;6.45;;
20627;SDS011;10473;42.734;24.258;2024-03-25T00:11:43;13.85;;;7.45;;
20627;SDS011;10473;42.734;24.258;2024-03-25T00:14:09;12.35;;;7.40;;
20627;SDS011;10473;42.734;24.258;2024-03-25T00:16:35;11.27;;;6.88;;
20627;SDS011;10473;42.734;24.258;2024-03-25T00:19:02;20.50;;;8.35;;
20627;SDS011;10473;42.734;24.258;2024-03-25T00:21:27;16.17;;;9.25;;
20627;SDS011;10473;42.734;24.258;2024-03-25T00:23:53;14.88;;;7.90;;
20627;SDS011;10473;42.734;24.258;2024-03-25T00:26:21;13.35;;;6.97;;
20627;SDS011;10473;42.734;24.258;2024-03-25T00:28:48;11.40;;;6.10;;
20627;SDS011;10473;42.734;24.258;2024-03-25T00:31:13;11.45;;;6.93;;
20627;SDS011;10473;42.734;24.258;2024-03-25T00:33:39;13.18;;;6.78;;
20627;SDS011;10473;42.734;24.258;2024-03-25T00:36:05;13.00;;;6.35;;
20627;SDS011;10473;42.734;24.258;2024-03-25T00:38:30;10.63;;;6.85;;
20627;SDS011;10473;42.734;24.258;2024-03-25T00:40:56;10.85;;;6.10;;
20627;SDS011;10473;42.734;24.258;2024-03-25T00:43:23;8.77;;;6.38;;
20627;SDS011;10473;42.734;24.258;2024-03-25T00:45:48;10.48;;;6.50;;
20627;SDS011;10473;42.734;24.258;2024-03-25T00:48:14;11.00;;;5.50;;
20627;SDS011;10473;42.734;24.258;2024-03-25T00:50:39;7.40;;;3.90;;
20627;SDS011;10473;42.734;24.258;2024-03-25T00:53:05;2.92;;;2.13;;
20627;SDS011;10473;42.734;24.258;2024-03-25T00:55:33;1.83;;;1.73;;
20627;SDS011;10473;42.734;24.258;2024-03-25T00:57:58;0.80;;;0.68;;
20627;SDS011;10473;42.734;24.258;2024-03-25T01:00:24;1.45;;;1.35;;
20627;SDS011;10473;42.734;24.258;2024-03-25T01:02:50;1.63;;;1.52;;
20627;SDS011;10473;42.734;24.258;2024-03-25T01:05:15;1.23;;;1.02;;
20627;SDS011;10473;42.734;24.258;2024-03-25T01:07:41;1.00;;;1.00;;
20627;SDS011;10473;42.734;24.258;2024-03-25T01:10:07;0.98;;;0.75;;
20627;SDS011;10473;42.734;24.258;2024-03-25T01:12:32;1.27;;;0.85;;
20627;SDS011;10473;42.734;24.258;2024-03-25T01:14:58;1.00;;;0.75;;
20627;SDS011;10473;42.734;24.258;2024-03-25T01:17:23;1.73;;;1.25;;
20627;SDS011;10473;42.734;24.258;2024-03-25T01:19:49;1.00;;;1.00;;
20627;SDS011;10473;42.734;24.258;2024-03-25T01:22:14;4.18;;;2.17;;
20627;SDS011;10473;42.734;24.258;2024-03-25T01:24:40;1.25;;;1.10;;
20627;SDS011;10473;42.734;24.258;2024-03-25T01:27:05;1.25;;;0.90;;
20627;SDS011;10473;42.734;24.258;2024-03-25T01:29:31;2.22;;;0.93;;
20627;SDS011;10473;42.734;24.258;2024-03-25T01:31:57;1.75;;;1.65;;
20627;SDS011;10473;42.734;24.258;2024-03-25T01:34:24;1.52;;;1.42;;
20627;SDS011;10473;42.734;24.258;2024-03-25T01:36:51;1.58;;;0.90;;
20627;SDS011;10473;42.734;24.258;2024-03-25T01:39:17;1.23;;;1.20;;
20627;SDS011;10473;42.734;24.258;2024-03-25T01:41:43;1.20;;;1.10;;
20627;SDS011;10473;42.734;24.258;2024-03-25T01:44:09;2.67;;;2.58;;
20627;SDS011;10473;42.734;24.258;2024-03-25T01:46:34;1.35;;;1.25;;
20627;SDS011;10473;42.734;24.258;2024-03-25T01:49:00;0.98;;;0.93;;
20627;SDS011;10473;42.734;24.258;2024-03-25T01:51:26;1.85;;;1.75;;
20627;SDS011;10473;42.734;24.258;2024-03-25T01:53:53;0.60;;;0.60;;
20627;SDS011;10473;42.734;24.258;2024-03-25T01:56:20;0.80;;;0.80;;
20627;SDS011;10473;42.734;24.258;2024-03-25T01:58:48;1.00;;;1.00;;
20627;SDS011;10473;42.734;24.258;2024-03-25T02:01:14;2.45;;;1.73;;
20627;SDS011;10473;42.734;24.258;2024-03-25T02:03:43;5.95;;;2.15;;
20627;SDS011;10473;42.734;24.258;2024-03-25T02:06:12;1.85;;;1.23;;
20627;SDS011;10473;42.734;24.258;2024-03-25T02:08:42;0.93;;;0.90;;
20627;SDS011;10473;42.734;24.258;2024-03-25T02:11:08;2.08;;;1.45;;
20627;SDS011;10473;42.734;24.258;2024-03-25T02:13:36;0.88;;;0.88;;
20627;SDS011;10473;42.734;24.258;2024-03-25T02:16:02;0.82;;;0.82;;
20627;SDS011;10473;42.734;24.258;2024-03-25T02:18:29;1.83;;;1.20;;
20627;SDS011;10473;42.734;24.258;2024-03-25T02:20:56;1.48;;;1.38;;
20627;SDS011;10473;42.734;24.258;2024-03-25T02:23:22;1.55;;;1.20;;
20627;SDS011;10473;42.734;24.258;2024-03-25T02:25:52;1.50;;;1.40;;
20627;SDS011;10473;42.734;24.258;2024-03-25T02:28:18;3.20;;;2.55;;
20627;SDS011;10473;42.734;24.258;2024-03-25T02:30:44;1.90;;;1.40;;
20627;SDS011;10473;42.734;24.258;2024-03-25T02:33:10;3.47;;;1.20;;
20627;SDS011;10473;42.734;24.258;2024-03-25T02:35:36;1.17;;;1.02;;
20627;SDS011;10473;42.734;24.258;2024-03-25T02:38:04;2.53;;;2.33;;
20627;SDS011;10473;42.734;24.258;2024-03-25T02:40:30;3.08;;;1.48;;
20627;SDS011;10473;42.734;24.258;2024-03-25T02:42:56;2.47;;;2.28;;
20627;SDS011;10473;42.734;24.258;2024-03-25T02:45:22;1.60;;;1.50;;
20627;SDS011;10473;42.734;24.258;2024-03-25T02:47:49;1.45;;;1.35;;
20627;SDS011;10473;42.734;24.258;2024-03-25T02:50:15;1.13;;;1.13;;
20627;SDS011;10473;42.734;24.258;2024-03-25T02:52:40;2.80;;;1.48;;
20627;SDS011;10473;42.734;24.258;2024-03-25T02:55:06;0.80;;;0.80;;
20627;SDS011;10473;42.734;24.258;2024-03-25T02:57:32;1.38;;;1.27;;
20627;SDS011;10473;42.734;24.258;2024-03-25T02:59:57;1.15;;;1.05;;
20627;SDS011;10473;42.734;24.258;2024-03-25T03:02:23;1.60;;;1.50;;
20627;SDS011;10473;42.734;24.258;2024-03-25T03:04:48;1.23;;;1.23;;
20627;SDS011;10473;42.734;24.258;2024-03-25T03:07:14;1.42;;;1.35;;
20627;SDS011;10473;42.734;24.258;2024-03-25T03:09:39;0.88;;;0.80;;
20627;SDS011;10473;42.734;24.258;2024-03-25T03:12:05;1.30;;;1.20;;
20627;SDS011;10473;42.734;24.258;2024-03-25T03:14:31;1.42;;;1.27;;
20627;SDS011;10473;42.734;24.258;2024-03-25T03:16:56;1.83;;;1.73;;
20627;SDS011;10473;42.734;24.258;2024-03-25T03:19:30;1.23;;;1.13;;
20627;SDS011;10473;42.734;24.258;2024-03-25T03:21:55;1.70;;;1.60;;
20627;SDS011;10473;42.734;24.258;2024-03-25T03:24:21;0.70;;;0.70;;
20627;SDS011;10473;42.734;24.258;2024-03-25T03:26:47;1.70;;;1.60;;
20627;SDS011;10473;42.734;24.258;2024-03-25T03:29:13;1.33;;;1.30;;
20627;SDS011;10473;42.734;24.258;2024-03-25T03:31:39;2.28;;;1.92;;
20627;SDS011;10473;42.734;24.258;2024-03-25T03:34:04;3.72;;;2.83;;
20627;SDS011;10473;42.734;24.258;2024-03-25T03:36:30;1.60;;;1.35;;
20627;SDS011;10473;42.734;24.258;2024-03-25T03:38:55;1.38;;;1.27;;
20627;SDS011;10473;42.734;24.258;2024-03-25T03:41:21;1.27;;;1.27;;
20627;SDS011;10473;42.734;24.258;2024-03-25T03:43:46;0.60;;;0.60;;
20627;SDS011;10473;42.734;24.258;2024-03-25T03:46:12;0.90;;;0.90;;
20627;SDS011;10473;42.734;24.258;2024-03-25T03:48:38;0.73;;;0.73;;
20627;SDS011;10473;42.734;24.258;2024-03-25T03:51:06;0.60;;;0.60;;
20627;SDS011;10473;42.734;24.258;2024-03-25T03:53:33;2.75;;;2.65;;
20627;SDS011;10473;42.734;24.258;2024-03-25T03:56:00;6.07;;;1.50;;
20627;SDS011;10473;42.734;24.258;2024-03-25T03:58:29;2.28;;;2.17;;
20627;SDS011;10473;42.734;24.258;2024-03-25T04:00:54;6.00;;;2.03;;
20627;SDS011;10473;42.734;24.258;2024-03-25T04:03:20;1.25;;;1.20;;
20627;SDS011;10473;42.734;24.258;2024-03-25T04:05:46;1.75;;;1.75;;
20627;SDS011;10473;42.734;24.258;2024-03-25T04:08:12;2.92;;;1.85;;
20627;SDS011;10473;42.734;24.258;2024-03-25T04:10:38;0.82;;;0.82;;
20627;SDS011;10473;42.734;24.258;2024-03-25T04:13:04;7.47;;;3.95;;
20627;SDS011;10473;42.734;24.258;2024-03-25T04:15:39;7.25;;;4.32;;
20627;SDS011;10473;42.734;24.258;2024-03-25T04:18:06;2.60;;;2.35;;
20627;SDS011;10473;42.734;24.258;2024-03-25T04:20:38;2.92;;;2.63;;
20627;SDS011;10473;42.734;24.258;2024-03-25T04:23:05;2.10;;;1.60;;
20627;SDS011;10473;42.734;24.258;2024-03-25T04:25:32;1.27;;;1.17;;
20627;SDS011;10473;42.734;24.258;2024-03-25T04:27:59;1.02;;;1.02;;
20627;SDS011;10473;42.734;24.258;2024-03-25T04:30:25;7.22;;;3.42;;
20627;SDS011;10473;42.734;24.258;2024-03-25T04:32:51;8.73;;;3.25;;
20627;SDS011;10473;42.734;24.258;2024-03-25T04:35:16;5.72;;;3.45;;
20627;SDS011;10473;42.734;24.258;2024-03-25T04:37:42;2.67;;;2.33;;
20627;SDS011;10473;42.734;24.258;2024-03-25T04:40:08;3.45;;;3.08;;
20627;SDS011;10473;42.734;24.258;2024-03-25T04:42:34;3.85;;;2.30;;
20627;SDS011;10473;42.734;24.258;2024-03-25T04:45:00;2.53;;;2.33;;
20627;SDS011;10473;42.734;24.258;2024-03-25T04:47:25;1.77;;;1.60;;
20627;SDS011;10473;42.734;24.258;2024-03-25T04:49:54;2.20;;;1.70;;
20627;SDS011;10473;42.734;24.258;2024-03-25T04:52:20;2.17;;;2.08;;
20627;SDS011;10473;42.734;24.258;2024-03-25T04:54:48;2.13;;;2.03;;
20627;SDS011;10473;42.734;24.258;2024-03-25T04:57:14;3.65;;;3.00;;
20627;SDS011;10473;42.734;24.258;2024-03-25T04:59:39;1.67;;;1.55;;
20627;SDS011;10473;42.734;24.258;2024-03-25T05:02:05;1.85;;;1.75;;
20627;SDS011;10473;42.734;24.258;2024-03-25T05:04:30;2.30;;;1.75;;
20627;SDS011;10473;42.734;24.258;2024-03-25T05:06:56;1.70;;;1.60;;
20627;SDS011;10473;42.734;24.258;2024-03-25T05:09:21;1.85;;;1.70;;
20627;SDS011;10473;42.734;24.258;2024-03-25T05:11:50;3.40;;;3.20;;
20627;SDS011;10473;42.734;24.258;2024-03-25T05:14:15;1.48;;;1.38;;
20627;SDS011;10473;42.734;24.258;2024-03-25T05:16:41;5.57;;;2.33;;
20627;SDS011;10473;42.734;24.258;2024-03-25T05:19:06;1.52;;;1.35;;
20627;SDS011;10473;42.734;24.258;2024-03-25T05:21:32;5.20;;;3.58;;
20627;SDS011;10473;42.734;24.258;2024-03-25T05:23:57;9.88;;;5.95;;
20627;SDS011;10473;42.734;24.258;2024-03-25T05:26:23;2.47;;;2.03;;
20627;SDS011;10473;42.734;24.258;2024-03-25T05:28:55;6.43;;;5.85;;
20627;SDS011;10473;42.734;24.258;2024-03-25T05:31:22;2.92;;;2.70;;
20627;SDS011;10473;42.734;24.258;2024-03-25T05:33:48;2.53;;;1.88;;
20627;SDS011;10473;42.734;24.258;2024-03-25T05:36:14;1.70;;;1.60;;
20627;SDS011;10473;42.734;24.258;2024-03-25T05:38:40;2.33;;;2.20;;
20627;SDS011;10473;42.734;24.258;2024-03-25T05:41:07;19.48;;;14.30;;
20627;SDS011;10473;42.734;24.258;2024-03-25T05:43:33;3.22;;;2.50;;
20627;SDS011;10473;42.734;24.258;2024-03-25T05:45:59;12.57;;;6.90;;
20627;SDS011;10473;42.734;24.258;2024-03-25T05:48:24;4.10;;;2.38;;
20627;SDS011;10473;42.734;24.258;2024-03-25T05:51:03;2.45;;;2.25;;
20627;SDS011;10473;42.734;24.258;2024-03-25T05:53:34;5.75;;;3.92;;
20627;SDS011;10473;42.734;24.258;2024-03-25T05:56:00;3.75;;;3.28;;
20627;SDS011;10473;42.734;24.258;2024-03-25T05:58:25;5.63;;;3.25;;
20627;SDS011;10473;42.734;24.258;2024-03-25T06:00:51;4.15;;;2.88;;
20627;SDS011;10473;42.734;24.258;2024-03-25T06:03:20;2.20;;;1.98;;
20627;SDS011;10473;42.734;24.258;2024-03-25T06:05:46;2.15;;;1.48;;
20627;SDS011;10473;42.734;24.258;2024-03-25T06:08:12;3.10;;;2.22;;
20627;SDS011;10473;42.734;24.258;2024-03-25T06:10:49;2.22;;;2.10;;
20627;SDS011;10473;42.734;24.258;2024-03-25T06:13:18;2.28;;;2.08;;
20627;SDS011;10473;42.734;24.258;2024-03-25T06:15:45;4.43;;;2.15;;
20627;SDS011;10473;42.734;24.258;2024-03-25T06:18:14;1.92;;;1.50;;
20627;SDS011;10473;42.734;24.258;2024-03-25T06:20:39;3.50;;;3.20;;
20627;SDS011;10473;42.734;24.258;2024-03-25T06:23:05;3.30;;;2.25;;
20627;SDS011;10473;42.734;24.258;2024-03-25T06:25:31;4.40;;;2.45;;
20627;SDS011;10473;42.734;24.258;2024-03-25T06:27:58;3.05;;;1.92;;
20627;SDS011;10473;42.734;24.258;2024-03-25T06:30:24;2.45;;;2.25;;
20627;SDS011;10473;42.734;24.258;2024-03-25T06:33:08;2.75;;;2.45;;
20627;SDS011;10473;42.734;24.258;2024-03-25T06:35:52;2.38;;;2.17;;
20627;SDS011;10473;42.734;24.258;2024-03-25T06:38:17;1.83;;;1.73;;
20627;SDS011;10473;42.734;24.258;2024-03-25T06:40:44;3.65;;;2.15;;
20627;SDS011;10473;42.734;24.258;2024-03-25T06:43:10;5.10;;;2.33;;
20627;SDS011;10473;42.734;24.258;2024-03-25T06:45:36;3.05;;;2.17;;
20627;SDS011;10473;42.734;24.258;2024-03-25T06:48:01;3.03;;;1.63;;
20627;SDS011;10473;42.734;24.258;2024-03-25T06:50:27;1.70;;;1.60;;
20627;SDS011;10473;42.734;24.258;2024-03-25T06:52:52;2.40;;;2.05;;
20627;SDS011;10473;42.734;24.258;2024-03-25T06:55:18;3.25;;;2.08;;
20627;SDS011;10473;42.734;24.258;2024-03-25T06:57:47;1.95;;;1.67;;
20627;SDS011;10473;42.734;24.258;2024-03-25T07:00:13;2.25;;;1.45;;
20627;SDS011;10473;42.734;24.258;2024-03-25T07:02:39;3.47;;;3.13;;
20627;SDS011;10473;42.734;24.258;2024-03-25T07:05:05;3.13;;;2.75;;
20627;SDS011;10473;42.734;24.258;2024-03-25T07:07:31;6.10;;;2.55;;
20627;SDS011;10473;42.734;24.258;2024-03-25T07:09:57;3.38;;;2.22;;
20627;SDS011;10473;42.734;24.258;2024-03-25T07:12:22;3.13;;;2.72;;
20627;SDS011;10473;42.734;24.258;2024-03-25T07:14:48;2.45;;;1.77;;
20627;SDS011;10473;42.734;24.258;2024-03-25T07:17:14;4.63;;;3.47;;
20627;SDS011;10473;42.734;24.258;2024-03-25T07:19:39;5.45;;;3.80;;
20627;SDS011;10473;42.734;24.258;2024-03-25T07:22:05;3.92;;;2.70;;
20627;SDS011;10473;42.734;24.258;2024-03-25T07:24:30;3.67;;;3.28;;
20627;SDS011;10473;42.734;24.258;2024-03-25T07:26:56;4.22;;;2.70;;
20627;SDS011;10473;42.734;24.258;2024-03-25T07:29:21;3.10;;;2.65;;
20627;SDS011;10473;42.734;24.258;2024-03-25T07:31:47;3.00;;;2.60;;
20627;SDS011;10473;42.734;24.258;2024-03-25T07:34:12;3.55;;;2.80;;
20627;SDS011;10473;42.734;24.258;2024-03-25T07:36:38;3.53;;;2.20;;
20627;SDS011;10473;42.734;24.258;2024-03-25T07:39:04;2.33;;;1.88;;
20627;SDS011;10473;42.734;24.258;2024-03-25T07:41:36;2.55;;;1.63;;
20627;SDS011;10473;42.734;24.258;2024-03-25T07:44:04;5.10;;;1.90;;
20627;SDS011;10473;42.734;24.258;2024-03-25T07:46:30;2.88;;;2.13;;
20627;SDS011;10473;42.734;24.258;2024-03-25T07:48:55;1.58;;;1.42;;
20627;SDS011;10473;42.734;24.258;2024-03-25T07:51:21;3.30;;;3.10;;
20627;SDS011;10473;42.734;24.258;2024-03-25T07:53:47;2.25;;;2.05;;
20627;SDS011;10473;42.734;24.258;2024-03-25T07:56:12;4.30;;;3.72;;
20627;SDS011;10473;42.734;24.258;2024-03-25T07:58:40;3.70;;;1.40;;
20627;SDS011;10473;42.734;24.258;2024-03-25T08:01:06;2.45;;;2.25;;
20627;SDS011;10473;42.734;24.258;2024-03-25T08:03:31;2.45;;;2.25;;
20627;SDS011;10473;42.734;24.258;2024-03-25T08:05:57;3.13;;;1.42;;
20627;SDS011;10473;42.734;24.258;2024-03-25T08:08:22;2.15;;;1.95;;
20627;SDS011;10473;42.734;24.258;2024-03-25T08:10:48;1.85;;;1.65;;
20627;SDS011;10473;42.734;24.258;2024-03-25T08:13:13;4.10;;;1.90;;
20627;SDS011;10473;42.734;24.258;2024-03-25T08:15:39;2.50;;;2.22;;
20627;SDS011;10473;42.734;24.258;2024-03-25T08:18:04;3.03;;;2.40;;
20627;SDS011;10473;42.734;24.258;2024-03-25T08:20:30;2.08;;;1.60;;
20627;SDS011;10473;42.734;24.258;2024-03-25T08:22:55;3.25;;;2.10;;
20627;SDS011;10473;42.734;24.258;2024-03-25T08:25:21;88.03;;;8.52;;
20627;SDS011;10473;42.734;24.258;2024-03-25T08:27:46;3.58;;;1.45;;
20627;SDS011;10473;42.734;24.258;2024-03-25T08:30:12;3.00;;;1.50;;
20627;SDS011;10473;42.734;24.258;2024-03-25T08:32:38;2.15;;;1.83;;
20627;SDS011;10473;42.734;24.258;2024-03-25T08:35:03;3.85;;;1.85;;
20627;SDS011;10473;42.734;24.258;2024-03-25T08:37:29;2.80;;;2.60;;
20627;SDS011;10473;42.734;24.258;2024-03-25T08:39:54;2.30;;;1.95;;
20627;SDS011;10473;42.734;24.258;2024-03-25T08:42:20;1.60;;;1.50;;
20627;SDS011;10473;42.734;24.258;2024-03-25T08:44:46;2.30;;;2.08;;
20627;SDS011;10473;42.734;24.258;2024-03-25T08:47:12;1.70;;;1.60;;
20627;SDS011;10473;42.734;24.258;2024-03-25T08:49:38;3.45;;;1.70;;
20627;SDS011;10473;42.734;24.258;2024-03-25T08:52:03;2.13;;;1.92;;
20627;SDS011;10473;42.734;24.258;2024-03-25T08:54:29;3.88;;;1.95;;
20627;SDS011;10473;42.734;24.258;2024-03-25T08:56:54;3.17;;;2.65;;
20627;SDS011;10473;42.734;24.258;2024-03-25T08:59:20;1.88;;;1.77;;
20627;SDS011;10473;42.734;24.258;2024-03-25T09:01:45;4.07;;;1.88;;
20627;SDS011;10473;42.734;24.258;2024-03-25T09:04:11;3.63;;;1.90;;
20627;SDS011;10473;42.734;24.258;2024-03-25T09:06:36;3.25;;;1.60;;
20627;SDS011;10473;42.734;24.258;2024-03-25T09:09:03;2.65;;;2.15;;
20627;SDS011;10473;42.734;24.258;2024-03-25T09:11:46;3.15;;;2.10;;
20627;SDS011;10473;42.734;24.258;2024-03-25T09:14:12;1.88;;;1.77;;
20627;SDS011;10473;42.734;24.258;2024-03-25T09:16:38;1.90;;;1.65;;
20627;SDS011;10473;42.734;24.258;2024-03-25T09:19:03;1.40;;;1.17;;
20627;SDS011;10473;42.734;24.258;2024-03-25T09:21:29;2.88;;;1.30;;
20627;SDS011;10473;42.734;24.258;2024-03-25T09:23:55;1.20;;;1.10;;
20627;SDS011;10473;42.734;24.258;2024-03-25T09:26:22;1.60;;;1.50;;
20627;SDS011;10473;42.734;24.258;2024-03-25T09:28:48;1.65;;;1.33;;
20627;SDS011;10473;42.734;24.258;2024-03-25T09:31:14;2.05;;;1.48;;
20627;SDS011;10473;42.734;24.258;2024-03-25T09:33:39;1.30;;;1.20;;
20627;SDS011;10473;42.734;24.258;2024-03-25T09:36:05;1.65;;;1.55;;
20627;SDS011;10473;42.734;24.258;2024-03-25T09:38:31;3.17;;;1.42;;
20627;SDS011;10473;42.734;24.258;2024-03-25T09:40:56;4.43;;;3.08;;
20627;SDS011;10473;42.734;24.258;2024-03-25T09:43:23;1.92;;;1.38;;
20627;SDS011;10473;42.734;24.258;2024-03-25T09:45:52;2.05;;;1.85;;
20627;SDS011;10473;42.734;24.258;2024-03-25T09:48:21;2.45;;;1.90;;
20627;SDS011;10473;42.734;24.258;2024-03-25T09:50:46;6.05;;;2.03;;
20627;SDS011;10473;42.734;24.258;2024-03-25T09:53:14;1.65;;;1.55;;
20627;SDS011;10473;42.734;24.258;2024-03-25T09:55:39;2.20;;;1.42;;
20627;SDS011;10473;42.734;24.258;2024-03-25T09:58:05;1.27;;;1.10;;
20627;SDS011;10473;42.734;24.258;2024-03-25T10:00:31;2.90;;;1.63;;
20627;SDS011;10473;42.734;24.258;2024-03-25T10:02:58;4.45;;;2.53;;
20627;SDS011;10473;42.734;24.258;2024-03-25T10:05:23;4.78;;;1.60;;
20627;SDS011;10473;42.734;24.258;2024-03-25T10:07:49;1.95;;;1.50;;
20627;SDS011;10473;42.734;24.258;2024-03-25T10:10:19;2.30;;;1.27;;
20627;SDS011;10473;42.734;24.258;2024-03-25T10:12:45;2.17;;;2.05;;
20627;SDS011;10473;42.734;24.258;2024-03-25T10:15:20;1.42;;;1.33;;
20627;SDS011;10473;42.734;24.258;2024-03-25T10:17:48;2.10;;;1.17;;
20627;SDS011;10473;42.734;24.258;2024-03-25T10:20:14;1.30;;;1.20;;
20627;SDS011;10473;42.734;24.258;2024-03-25T10:22:40;1.40;;;1.30;;
20627;SDS011;10473;42.734;24.258;2024-03-25T10:25:07;1.77;;;1.35;;
20627;SDS011;10473;42.734;24.258;2024-03-25T10:27:33;1.60;;;1.50;;
20627;SDS011;10473;42.734;24.258;2024-03-25T10:29:58;0.93;;;0.93;;
20627;SDS011;10473;42.734;24.258;2024-03-25T10:32:24;1.63;;;0.75;;
20627;SDS011;10473;42.734;24.258;2024-03-25T10:34:50;3.38;;;1.00;;
20627;SDS011;10473;42.734;24.258;2024-03-25T10:37:15;0.95;;;0.95;;
20627;SDS011;10473;42.734;24.258;2024-03-25T10:39:53;1.42;;;1.33;;
20627;SDS011;10473;42.734;24.258;2024-03-25T10:42:21;1.05;;;0.93;;
20627;SDS011;10473;42.734;24.258;2024-03-25T10:44:48;1.15;;;0.90;;
20627;SDS011;10473;42.734;24.258;2024-03-25T10:47:16;1.17;;;1.10;;
20627;SDS011;10473;42.734;24.258;2024-03-25T10:49:49;1.15;;;0.82;;
20627;SDS011;10473;42.734;24.258;2024-03-25T10:52:17;2.78;;;0.90;;
20627;SDS011;10473;42.734;24.258;2024-03-25T10:54:44;1.60;;;1.50;;
20627;SDS011;10473;42.734;24.258;2024-03-25T10:57:13;5.18;;;2.97;;
20627;SDS011;10473;42.734;24.258;2024-03-25T10:59:39;1.48;;;1.35;;
20627;SDS011;10473;42.734;24.258;2024-03-25T11:02:08;7.43;;;3.60;;
20627;SDS011;10473;42.734;24.258;2024-03-25T11:04:34;5.43;;;2.85;;
20627;SDS011;10473;42.734;24.258;2024-03-25T11:07:10;14.20;;;5.38;;
20627;SDS011;10473;42.734;24.258;2024-03-25T11:09:37;1.95;;;1.48;;
20627;SDS011;10473;42.734;24.258;2024-03-25T11:12:03;1.30;;;1.00;;
20627;SDS011;10473;42.734;24.258;2024-03-25T11:14:29;1.35;;;1.17;;
20627;SDS011;10473;42.734;24.258;2024-03-25T11:16:57;0.90;;;0.90;;
20627;SDS011;10473;42.734;24.258;2024-03-25T11:19:28;0.70;;;0.70;;
20627;SDS011;10473;42.734;24.258;2024-03-25T11:21:57;1.50;;;1.08;;
20627;SDS011;10473;42.734;24.258;2024-03-25T11:24:36;2.28;;;1.75;;
20627;SDS011;10473;42.734;24.258;2024-03-25T11:27:02;2.50;;;1.83;;
20627;SDS011;10473;42.734;24.258;2024-03-25T11:29:31;1.40;;;0.88;;
20627;SDS011;10473;42.734;24.258;2024-03-25T11:31:56;6.20;;;2.50;;
20627;SDS011;10473;42.734;24.258;2024-03-25T11:34:25;0.95;;;0.80;;
20627;SDS011;10473;42.734;24.258;2024-03-25T11:36:50;2.47;;;1.63;;
20627;SDS011;10473;42.734;24.258;2024-03-25T11:39:21;1.20;;;0.95;;
20627;SDS011;10473;42.734;24.258;2024-03-25T11:41:47;2.25;;;1.73;;
20627;SDS011;10473;42.734;24.258;2024-03-25T11:44:13;2.03;;;1.70;;
20627;SDS011;10473;42.734;24.258;2024-03-25T11:46:39;1.27;;;1.17;;
20627;SDS011;10473;42.734;24.258;2024-03-25T11:49:11;1.65;;;1.23;;
20627;SDS011;10473;42.734;24.258;2024-03-25T11:51:38;3.03;;;1.48;;
20627;SDS011;10473;42.734;24.258;2024-03-25T11:54:07;0.70;;;0.70;;
20627;SDS011;10473;42.734;24.258;2024-03-25T11:56:36;0.70;;;0.70;;
20627;SDS011;10473;42.734;24.258;2024-03-25T11:59:06;1.75;;;1.65;;
20627;SDS011;10473;42.734;24.258;2024-03-25T12:01:32;4.03;;;1.25;;
20627;SDS011;10473;42.734;24.258;2024-03-25T12:04:11;1.40;;;0.77;;
20627;SDS011;10473;42.734;24.258;2024-03-25T12:06:37;0.80;;;0.80;;
20627;SDS011;10473;42.734;24.258;2024-03-25T12:09:03;0.90;;;0.90;;
20627;SDS011;10473;42.734;24.258;2024-03-25T12:11:47;1.70;;;1.08;;
20627;SDS011;10473;42.734;24.258;2024-03-25T12:14:13;1.13;;;1.02;;
20627;SDS011;10473;42.734;24.258;2024-03-25T12:16:40;0.70;;;0.70;;
20627;SDS011;10473;42.734;24.258;2024-03-25T12:19:05;1.27;;;0.98;;
20627;SDS011;10473;42.734;24.258;2024-03-25T12:21:31;1.85;;;1.00;;
20627;SDS011;10473;42.734;24.258;2024-03-25T12:23:57;0.93;;;0.82;;
20627;SDS011;10473;42.734;24.258;2024-03-25T12:26:23;2.13;;;0.95;;
20627;SDS011;10473;42.734;24.258;2024-03-25T12:28:49;1.38;;;1.02;;
20627;SDS011;10473;42.734;24.258;2024-03-25T12:31:14;1.10;;;0.90;;
20627;SDS011;10473;42.734;24.258;2024-03-25T12:33:41;2.65;;;1.65;;
20627;SDS011;10473;42.734;24.258;2024-03-25T12:36:13;2.15;;;1.33;;
20627;SDS011;10473;42.734;24.258;2024-03-25T12:38:38;1.35;;;1.25;;
20627;SDS011;10473;42.734;24.258;2024-03-25T12:41:04;0.77;;;0.63;;
20627;SDS011;10473;42.734;24.258;2024-03-25T12:43:34;1.30;;;1.10;;
20627;SDS011;10473;42.734;24.258;2024-03-25T12:46:01;2.05;;;1.95;;
20627;SDS011;10473;42.734;24.258;2024-03-25T12:48:28;0.90;;;0.88;;
20627;SDS011;10473;42.734;24.258;2024-03-25T12:50:55;1.17;;;1.08;;
20627;SDS011;10473;42.734;24.258;2024-03-25T12:53:20;1.25;;;1.13;;
20627;SDS011;10473;42.734;24.258;2024-03-25T12:55:46;2.05;;;1.75;;
20627;SDS011;10473;42.734;24.258;2024-03-25T12:58:12;1.63;;;1.52;;
20627;SDS011;10473;42.734;24.258;2024-03-25T13:00:37;1.70;;;1.25;;
20627;SDS011;10473;42.734;24.258;2024-03-25T13:03:04;1.27;;;1.08;;
20627;SDS011;10473;42.734;24.258;2024-03-25T13:05:31;1.00;;;1.00;;
20627;SDS011;10473;42.734;24.258;2024-03-25T13:07:57;2.55;;;1.63;;
20627;SDS011;10473;42.734;24.258;2024-03-25T13:10:23;1.67;;;1.00;;
20627;SDS011;10473;42.734;24.258;2024-03-25T13:12:49;2.70;;;1.55;;
20627;SDS011;10473;42.734;24.258;2024-03-25T13:15:14;3.13;;;1.90;;
20627;SDS011;10473;42.734;24.258;2024-03-25T13:17:40;0.82;;;0.75;;
20627;SDS011;10473;42.734;24.258;2024-03-25T13:20:05;1.65;;;1.52;;
20627;SDS011;10473;42.734;24.258;2024-03-25T13:22:31;4.15;;;1.85;;
20627;SDS011;10473;42.734;24.258;2024-03-25T13:24:58;2.55;;;1.67;;
20627;SDS011;10473;42.734;24.258;2024-03-25T13:27:24;1.52;;;1.00;;
20627;SDS011;10473;42.734;24.258;2024-03-25T13:29:50;1.67;;;1.23;;
20627;SDS011;10473;42.734;24.258;2024-03-25T13:32:18;3.67;;;1.90;;
20627;SDS011;10473;42.734;24.258;2024-03-25T13:34:44;1.15;;;1.05;;
20627;SDS011;10473;42.734;24.258;2024-03-25T13:37:10;1.83;;;1.67;;
20627;SDS011;10473;42.734;24.258;2024-03-25T13:39:36;2.08;;;1.48;;
20627;SDS011;10473;42.734;24.258;2024-03-25T13:42:01;1.52;;;1.23;;
20627;SDS011;10473;42.734;24.258;2024-03-25T13:44:27;1.90;;;1.80;;
20627;SDS011;10473;42.734;24.258;2024-03-25T13:46:53;1.13;;;1.13;;
20627;SDS011;10473;42.734;24.258;2024-03-25T13:49:19;2.20;;;2.00;;
20627;SDS011;10473;42.734;24.258;2024-03-25T13:51:45;1.40;;;1.30;;
20627;SDS011;10473;42.734;24.258;2024-03-25T13:54:11;1.13;;;0.82;;
20627;SDS011;10473;42.734;24.258;2024-03-25T13:56:36;0.88;;;0.80;;
20627;SDS011;10473;42.734;24.258;2024-03-25T13:59:03;1.45;;;1.25;;
20627;SDS011;10473;42.734;24.258;2024-03-25T14:01:28;1.17;;;1.08;;
20627;SDS011;10473;42.734;24.258;2024-03-25T14:03:54;1.13;;;1.02;;
20627;SDS011;10473;42.734;24.258;2024-03-25T14:06:20;18.42;;;8.35;;
20627;SDS011;10473;42.734;24.258;2024-03-25T14:08:45;4.63;;;2.78;;
20627;SDS011;10473;42.734;24.258;2024-03-25T14:11:11;3.00;;;1.90;;
20627;SDS011;10473;42.734;24.258;2024-03-25T14:13:36;4.13;;;2.60;;
20627;SDS011;10473;42.734;24.258;2024-03-25T14:16:02;4.40;;;3.22;;
20627;SDS011;10473;42.734;24.258;2024-03-25T14:18:27;2.17;;;1.92;;
20627;SDS011;10473;42.734;24.258;2024-03-25T14:20:53;1.85;;;1.35;;
20627;SDS011;10473;42.734;24.258;2024-03-25T14:23:18;2.95;;;2.75;;
20627;SDS011;10473;42.734;24.258;2024-03-25T14:25:44;1.30;;;1.20;;
20627;SDS011;10473;42.734;24.258;2024-03-25T14:28:10;1.40;;;1.15;;
20627;SDS011;10473;42.734;24.258;2024-03-25T14:30:35;4.47;;;1.50;;